Time;durP1;ratioP1;P1;durP2;ratioP2;P2;SDS_P1;SDS_P2;PMS_P1;PMS_P2;Temp;Humidity;BMP_temperature;BMP_pressure;BME280_temperature;BME280_humidity;BME280_pressure;Samples;Min_cycle;Max_cycle;Signal;HPM_P1;HPM_P2
2022/05/22 00:02:01;;;;;;;4.30;1.67;;;;;;;19.64;39.73;98596.25;4486824;32;20081;-78
2022/05/22 00:04:26;;;;;;;6.12;1.50;;;;;;;19.73;39.53;98592.75;4473712;32;20131;-78
2022/05/22 00:06:52;;;;;;;7.43;1.50;;;;;;;19.64;39.65;98589.09;4488085;31;20107;-77
2022/05/22 00:09:18;;;;;;;4.60;1.83;;;;;;;19.54;39.96;98587.44;4488047;31;20114;-78
2022/05/22 00:11:43;;;;;;;6.07;1.87;;;;;;;19.64;39.87;98586.44;4487957;31;20102;-78
2022/05/22 00:14:12;;;;;;;6.15;1.80;;;;;;;19.72;39.73;98582.19;4487911;31;20100;-78
2022/05/22 00:16:42;;;;;;;4.32;1.67;;;;;;;19.73;39.65;98582.06;4473791;32;20116;-78
2022/05/22 00:19:12;;;;;;;6.60;1.65;;;;;;;19.57;40.00;98571.97;4487711;31;20151;-78
2022/05/22 00:21:39;;;;;;;4.75;2.00;;;;;;;19.63;39.77;98583.91;4486546;32;20103;-78
2022/05/22 00:24:05;;;;;;;6.78;1.70;;;;;;;19.57;39.79;98576.47;4487606;31;20104;-77
2022/05/22 00:26:31;;;;;;;5.85;1.70;;;;;;;19.57;39.47;98566.63;4486448;32;20091;-77
2022/05/22 00:28:56;;;;;;;3.17;1.50;;;;;;;19.69;39.35;98566.44;4487488;31;20488;-78
2022/05/22 00:31:22;;;;;;;5.80;1.70;;;;;;;19.53;39.50;98567.91;4487551;31;20119;-78
2022/05/22 00:33:47;;;;;;;6.00;2.10;;;;;;;19.54;39.04;98571.41;4487531;31;20116;-78
2022/05/22 00:36:12;;;;;;;4.12;1.50;;;;;;;19.45;39.31;98565.97;4487069;31;20112;-78
2022/05/22 00:38:38;;;;;;;3.72;1.45;;;;;;;19.32;38.98;98562.75;4487577;31;20073;-77
2022/05/22 00:41:04;;;;;;;6.93;1.62;;;;;;;19.39;38.60;98560.34;4487431;31;20085;-78
2022/05/22 00:43:42;;;;;;;5.43;1.62;;;;;;;19.31;39.18;98561.06;4486274;32;20116;-78
2022/05/22 00:46:11;;;;;;;7.55;1.67;;;;;;;19.38;38.91;98564.84;4486434;32;20104;-78
2022/05/22 00:48:38;;;;;;;6.30;1.80;;;;;;;19.33;39.31;98558.25;4487439;31;20564;-78
2022/05/22 00:51:10;;;;;;;6.07;1.55;;;;;;;19.41;39.27;98567.25;4473184;32;20115;-77
2022/05/22 00:53:39;;;;;;;4.60;1.90;;;;;;;19.22;39.59;98568.13;4487427;31;20096;-78
2022/05/22 00:56:07;;;;;;;4.60;1.70;;;;;;;19.27;39.54;98565.03;4486182;32;20122;-78
2022/05/22 00:58:32;;;;;;;4.62;1.65;;;;;;;19.18;39.89;98561.41;4486201;32;20482;-78
2022/05/22 01:00:58;;;;;;;5.53;1.70;;;;;;;18.88;39.75;98565.09;4487204;31;20065;-78
2022/05/22 01:03:28;;;;;;;4.93;1.67;;;;;;;19.11;40.12;98564.78;4487166;31;20333;-78
2022/05/22 01:05:57;;;;;;;5.28;1.60;;;;;;;19.11;39.74;98562.94;4486174;32;20181;-78
2022/05/22 01:08:23;;;;;;;6.12;2.03;;;;;;;19.04;39.89;98552.03;4487419;31;20081;-78
2022/05/22 01:11:05;;;;;;;4.53;1.60;;;;;;;18.97;40.54;98553.56;4486014;32;20104;-78
2022/05/22 01:13:37;;;;;;;5.07;1.73;;;;;;;19.00;40.31;98547.91;4486182;32;20095;-78
2022/05/22 01:16:04;;;;;;;4.37;1.50;;;;;;;18.95;40.66;98547.53;4486201;32;20092;-77
2022/05/22 01:18:30;;;;;;;5.40;1.80;;;;;;;18.90;40.76;98549.78;4486091;32;20097;-78
2022/05/22 01:20:55;;;;;;;4.80;1.42;;;;;;;18.70;40.74;98551.59;4472849;32;20112;-78
2022/05/22 01:23:22;;;;;;;5.40;1.60;;;;;;;18.89;40.40;98541.91;4487198;31;20092;-78
2022/05/22 01:25:47;;;;;;;6.90;1.90;;;;;;;18.66;40.27;98553.69;4487128;32;20360;-78
2022/05/22 01:28:15;;;;;;;4.47;1.52;;;;;;;18.67;39.84;98536.69;4487071;31;20141;-77
2022/05/22 01:30:41;;;;;;;4.30;1.30;;;;;;;18.62;39.46;98544.28;4487075;31;20443;-76
2022/05/22 01:33:06;;;;;;;5.28;1.73;;;;;;;18.69;39.04;98546.41;4487089;31;20092;-77
2022/05/22 01:35:33;;;;;;;3.62;1.37;;;;;;;18.56;39.21;98550.19;4486875;31;20118;-77
2022/05/22 01:37:58;;;;;;;6.93;1.45;;;;;;;18.72;38.96;98544.28;4485953;32;20155;-78
2022/05/22 01:40:24;;;;;;;7.47;1.50;;;;;;;18.67;39.19;98534.03;4487176;31;20080;-76
2022/05/22 01:42:50;;;;;;;3.75;1.50;;;;;;;18.59;38.88;98539.22;4485949;32;20455;-78
2022/05/22 01:45:19;;;;;;;4.28;1.50;;;;;;;18.64;38.66;98541.50;4487156;31;20088;-78
2022/05/22 01:47:45;;;;;;;5.53;1.73;;;;;;;18.71;38.56;98528.41;4486590;31;20485;-78
2022/05/22 01:50:11;;;;;;;3.87;1.40;;;;;;;18.84;38.18;98519.16;4485450;32;20108;-78
2022/05/22 01:52:37;;;;;;;4.00;1.30;;;;;;;18.88;37.91;98530.41;4485905;32;20524;-78
2022/05/22 01:55:04;;;;;;;5.07;1.45;;;;;;;19.02;37.46;98531.78;4486906;31;20096;-78
2022/05/22 01:57:30;;;;;;;5.60;1.20;;;;;;;18.84;37.55;98532.50;4485778;32;20088;-78
2022/05/22 01:59:55;;;;;;;5.90;1.35;;;;;;;18.52;38.27;98529.25;4486912;31;20200;-77
2022/05/22 02:02:21;;;;;;;4.18;1.33;;;;;;;18.49;38.33;98535.72;4486885;31;20112;-77
2022/05/22 02:04:46;;;;;;;4.32;1.30;;;;;;;18.50;38.39;98529.41;4486916;31;20088;-77
2022/05/22 02:09:56;;;;;;;5.22;1.35;;;;;;;18.61;38.27;98534.59;4486876;32;20149;-77
2022/05/22 02:12:22;;;;;;;5.00;1.40;;;;;;;18.52;38.52;98531.94;4485470;32;20100;-76
2022/05/22 02:14:47;;;;;;;5.37;1.30;;;;;;;18.63;38.36;98526.44;4485518;32;20126;-77
2022/05/22 02:17:13;;;;;;;3.80;1.20;;;;;;;18.39;38.73;98534.88;4486740;31;20158;-79
2022/05/22 02:19:38;;;;;;;4.22;1.42;;;;;;;18.57;38.59;98527.03;4486773;31;20085;-79
2022/05/22 02:22:04;;;;;;;5.47;1.52;;;;;;;18.67;38.54;98533.19;4485487;32;20109;-78
2022/05/22 02:24:29;;;;;;;3.83;1.35;;;;;;;18.75;38.76;98537.81;4485513;32;20132;-78
2022/05/22 02:26:55;;;;;;;3.72;1.42;;;;;;;18.76;38.83;98537.69;4486657;31;20115;-78
2022/05/22 02:29:21;;;;;;;5.03;1.50;;;;;;;18.64;39.43;98538.81;4486322;31;20103;-79
2022/05/22 02:31:47;;;;;;;5.50;1.50;;;;;;;18.76;39.43;98535.00;4486633;31;20116;-78
2022/05/22 02:34:12;;;;;;;4.78;1.70;;;;;;;18.69;39.83;98539.22;4486428;31;20084;-78
2022/05/22 02:36:37;;;;;;;5.80;2.05;;;;;;;18.76;39.88;98539.50;4485153;32;20108;-79
2022/05/22 02:39:03;;;;;;;6.87;1.80;;;;;;;18.51;40.47;98540.94;4486440;31;20115;-79
2022/05/22 02:41:28;;;;;;;4.20;1.55;;;;;;;18.67;40.22;98544.69;4485340;32;20143;-79
2022/05/22 02:43:54;;;;;;;5.50;1.60;;;;;;;18.75;40.26;98543.16;4486341;31;20075;-78
2022/05/22 02:46:20;;;;;;;4.50;1.40;;;;;;;18.68;40.40;98540.22;4485227;32;20424;-79
2022/05/22 02:48:46;;;;;;;4.70;1.40;;;;;;;18.62;40.66;98535.44;4486364;31;20119;-79
2022/05/22 02:51:14;;;;;;;4.95;1.90;;;;;;;18.49;40.98;98542.91;4485060;32;20432;-78
2022/05/22 02:53:39;;;;;;;;;;;;;;;18.43;41.26;98536.28;4485432;32;20542;-79
2022/05/22 02:56:14;;;;;;;4.75;1.65;;;;;;;18.41;41.29;98544.44;4486173;32;19960;-77
2022/05/22 02:58:40;;;;;;;5.75;1.87;;;;;;;18.34;41.54;98543.28;4485045;32;20431;-77
2022/05/22 03:01:05;;;;;;;3.55;1.52;;;;;;;18.42;41.33;98537.25;4488234;31;20142;-77
2022/05/22 03:03:31;;;;;;;4.37;1.65;;;;;;;18.25;41.54;98531.66;4488358;31;20122;-77
2022/05/22 03:08:41;;;;;;;7.68;1.87;;;;;;;18.11;41.92;98534.69;4488132;32;20507;-78
2022/05/22 03:11:07;;;;;;;4.78;1.70;;;;;;;18.05;41.94;98528.09;4486824;32;20104;-77
2022/05/22 03:13:33;;;;;;;6.62;1.50;;;;;;;18.16;41.79;98536.97;4488114;31;20080;-78
2022/05/22 03:15:58;;;;;;;4.22;1.48;;;;;;;18.26;41.67;98535.97;4488061;31;20130;-78
2022/05/22 03:18:24;;;;;;;4.60;1.40;;;;;;;18.49;40.99;98532.22;4488028;31;20084;-78
2022/05/22 03:20:49;;;;;;;6.35;1.75;;;;;;;18.26;41.38;98546.66;4488098;31;20116;-78
2022/05/22 03:23:15;;;;;;;4.80;1.33;;;;;;;18.52;40.93;98539.94;4486953;32;20425;-78
2022/05/22 03:25:41;;;;;;;4.85;1.50;;;;;;;18.62;40.91;98541.62;4488087;32;20110;-78
2022/05/22 03:28:06;;;;;;;4.30;1.62;;;;;;;18.55;41.03;98543.16;4473916;32;20100;-77
2022/05/22 03:30:32;;;;;;;3.85;1.52;;;;;;;18.55;41.39;98548.50;4488191;31;20440;-78
2022/05/22 03:32:57;;;;;;;4.55;1.48;;;;;;;18.66;41.37;98543.03;4488154;32;20084;-78
2022/05/22 03:35:23;;;;;;;5.18;1.80;;;;;;;18.61;41.44;98536.44;4487684;32;20127;-77
2022/05/22 03:37:48;;;;;;;5.45;1.52;;;;;;;18.71;41.22;98533.75;4487681;31;20431;-78
2022/05/22 03:40:14;;;;;;;4.72;1.55;;;;;;;18.82;41.12;98538.97;4473496;32;20148;-77
2022/05/22 03:42:40;;;;;;;5.72;1.50;;;;;;;18.99;40.73;98537.41;4487915;31;20471;-78
2022/05/22 03:45:06;;;;;;;7.18;1.80;;;;;;;18.97;40.73;98545.56;4487918;31;20091;-78
2022/05/22 03:47:31;;;;;;;4.57;1.30;;;;;;;19.04;40.46;98544.00;4487035;32;20089;-78
2022/05/22 03:49:56;;;;;;;5.28;1.50;;;;;;;19.15;39.95;98550.16;4487769;31;20092;-77
2022/05/22 03:52:22;;;;;;;4.87;1.80;;;;;;;19.14;40.09;98554.66;4487808;31;20115;-78
2022/05/22 03:54:48;;;;;;;5.00;1.60;;;;;;;19.22;39.73;98549.44;4487796;31;20108;-78
2022/05/22 03:57:13;;;;;;;5.35;1.58;;;;;;;19.16;40.14;98551.81;4487785;31;20164;-78
2022/05/22 03:59:39;;;;;;;5.78;1.50;;;;;;;19.37;39.81;98557.84;4487813;31;20100;-78
2022/05/22 04:02:05;;;;;;;3.67;1.50;;;;;;;19.41;39.62;98553.87;4486836;32;20105;-78
2022/05/22 04:04:30;;;;;;;4.97;1.40;;;;;;;19.38;39.62;98556.00;4486847;32;20324;-77
2022/05/22 04:06:56;;;;;;;3.92;1.50;;;;;;;19.27;39.48;98558.84;4487466;31;20112;-77
2022/05/22 04:09:21;;;;;;;5.85;1.58;;;;;;;19.33;39.57;98567.09;4487805;31;20479;-78
2022/05/22 04:11:47;;;;;;;6.32;1.50;;;;;;;18.81;40.49;98570.16;4485966;32;20104;-77
2022/05/22 04:14:12;;;;;;;11.12;1.98;;;;;;;18.77;40.38;98568.72;4486355;32;20136;-78
2022/05/22 04:16:38;;;;;;;6.78;1.90;;;;;;;18.83;40.10;98570.00;4487948;31;20080;-78
2022/05/22 04:19:04;;;;;;;5.40;1.90;;;;;;;18.56;40.87;98566.22;4487937;31;20077;-78
2022/05/22 04:21:29;;;;;;;4.70;1.70;;;;;;;18.26;41.59;98575.97;4486640;32;20127;-77
2022/05/22 04:26:38;;;;;;;5.75;1.80;;;;;;;18.41;41.34;98568.44;4487643;32;20111;-77
2022/05/22 04:29:04;;;;;;;4.78;1.75;;;;;;;18.55;41.14;98569.00;4487524;31;20112;-77
2022/05/22 04:31:29;;;;;;;4.82;1.52;;;;;;;18.64;40.90;98569.00;4487367;31;20370;-76
2022/05/22 04:33:55;;;;;;;4.47;1.70;;;;;;;18.52;41.47;98572.78;4487383;31;20090;-77
2022/05/22 04:36:20;;;;;;;5.18;1.70;;;;;;;18.53;41.64;98571.81;4486068;32;20077;-77
2022/05/22 04:38:46;;;;;;;7.85;1.85;;;;;;;18.71;41.30;98569.28;4487467;31;20107;-75
2022/05/22 04:41:11;;;;;;;5.37;1.80;;;;;;;18.80;41.11;98570.31;4486293;32;20131;-77
2022/05/22 04:43:36;;;;;;;5.37;1.77;;;;;;;18.91;41.05;98558.63;4487434;31;20105;-78
2022/05/22 04:46:06;;;;;;;6.07;1.75;;;;;;;19.01;40.94;98576.31;4486302;32;20084;-77
2022/05/22 04:48:32;;;;;;;5.10;1.70;;;;;;;19.39;40.42;98565.69;4487400;31;20096;-77
2022/05/22 04:50:57;;;;;;;6.37;1.73;;;;;;;19.58;39.84;98562.13;4487152;31;20080;-76
2022/05/22 04:53:25;;;;;;;5.72;1.42;;;;;;;19.71;39.19;98561.78;4487170;31;20442;-77
2022/05/22 04:55:51;;;;;;;6.07;1.67;;;;;;;19.80;38.91;98566.28;4487429;31;20153;-77
2022/05/22 04:58:17;;;;;;;5.43;1.60;;;;;;;19.90;38.36;98567.06;4487405;31;20156;-78
2022/05/22 05:00:43;;;;;;;4.47;1.50;;;;;;;19.71;38.72;98559.13;4487476;31;20118;-77
2022/05/22 05:03:09;;;;;;;5.90;1.55;;;;;;;19.97;38.57;98559.28;4486101;32;20084;-77
2022/05/22 05:05:35;;;;;;;7.22;1.55;;;;;;;19.74;38.74;98562.38;4487373;31;20072;-77
2022/05/22 05:08:00;;;;;;;5.53;1.42;;;;;;;19.79;38.35;98565.41;4486198;32;20123;-77
2022/05/22 05:10:26;;;;;;;5.82;1.98;;;;;;;20.13;38.45;98567.50;4487290;31;20514;-77
2022/05/22 05:12:52;;;;;;;5.40;1.60;;;;;;;20.16;37.89;98561.00;4486236;32;20435;-78
2022/05/22 05:15:19;;;;;;;4.82;1.60;;;;;;;20.13;38.02;98559.50;4485880;32;20099;-78
2022/05/22 05:17:45;;;;;;;5.03;1.42;;;;;;;20.34;37.93;98561.03;4486046;32;20105;-78
2022/05/22 05:20:12;;;;;;;6.30;1.83;;;;;;;20.62;37.08;98562.69;4486011;32;20093;-78
2022/05/22 05:22:37;;;;;;;4.63;1.40;;;;;;;20.73;36.70;98563.47;4485310;32;20092;-78
2022/05/22 05:25:04;;;;;;;6.22;1.50;;;;;;;21.15;36.79;98566.31;4486631;31;20212;-78
2022/05/22 05:27:29;;;;;;;5.60;1.47;;;;;;;21.35;35.77;98560.75;4485958;32;20100;-78
2022/05/22 05:29:55;;;;;;;5.18;1.33;;;;;;;21.68;35.40;98560.94;4487112;31;21063;-78
2022/05/22 05:32:21;;;;;;;5.10;1.50;;;;;;;21.54;35.79;98567.75;4485961;32;20137;-78
2022/05/22 05:34:47;;;;;;;6.97;1.60;;;;;;;21.43;34.88;98566.13;4486986;31;20080;-78
2022/05/22 05:37:13;;;;;;;4.93;1.85;;;;;;;;;;4485794;32;20127;-78
2022/05/22 05:39:38;;;;;;;6.90;1.48;;;;;;;22.04;34.32;98558.94;4487148;31;20080;-78
2022/05/22 05:42:04;;;;;;;4.72;1.55;;;;;;;21.99;34.39;98561.25;4487022;31;20069;-78
2022/05/22 05:44:32;;;;;;;5.30;1.40;;;;;;;22.11;34.13;98565.28;4487108;31;20511;-78
2022/05/22 05:46:57;;;;;;;5.97;1.62;;;;;;;22.07;34.24;98571.16;4487109;31;20147;-78
2022/05/22 05:49:23;;;;;;;6.18;1.50;;;;;;;22.03;34.04;98575.19;4487060;31;20093;-78
2022/05/22 05:51:48;;;;;;;5.85;1.40;;;;;;;22.10;34.03;98574.38;4487000;31;20110;-76
2022/05/22 05:54:13;;;;;;;3.53;1.58;;;;;;;22.47;33.22;98570.47;4486805;31;20139;-79
2022/05/22 05:56:40;;;;;;;4.45;1.40;;;;;;;22.45;33.19;98569.78;4487010;31;20150;-79
2022/05/22 05:59:06;;;;;;;3.50;1.47;;;;;;;22.22;33.71;98577.59;4487109;31;20100;-79
2022/05/22 06:01:33;;;;;;;4.35;1.35;;;;;;;22.25;33.56;98571.06;4485755;32;20111;-78
2022/05/22 06:03:59;;;;;;;3.90;1.35;;;;;;;22.36;33.69;98576.13;4485813;32;20111;-79
2022/05/22 06:06:24;;;;;;;4.75;1.30;;;;;;;22.40;33.99;98565.91;4486823;31;20092;-79
2022/05/22 06:08:50;;;;;;;3.53;1.30;;;;;;;22.56;33.17;98568.63;4485717;32;20099;-79
2022/05/22 06:11:15;;;;;;;4.20;1.42;;;;;;;22.71;32.62;98568.81;4485687;32;20105;-80
2022/05/22 06:13:41;;;;;;;3.33;1.40;;;;;;;22.99;32.62;98560.44;4486740;31;20364;-79
2022/05/22 06:16:07;;;;;;;4.65;1.48;;;;;;;22.91;32.60;98566.66;4486845;31;20448;-80
2022/05/22 06:18:33;;;;;;;3.80;1.40;;;;;;;22.85;32.15;98560.09;4485609;32;20100;-80
2022/05/22 06:20:59;;;;;;;5.12;1.50;;;;;;;23.06;32.36;98551.53;4486892;31;20106;-80
2022/05/22 06:23:24;;;;;;;4.87;1.50;;;;;;;23.39;31.75;98556.03;4485640;32;20084;-80
2022/05/22 06:25:50;;;;;;;5.97;1.40;;;;;;;23.39;31.54;98554.19;4485495;32;20088;-79
2022/05/22 06:28:17;;;;;;;2.97;1.20;;;;;;;23.77;31.10;98551.72;4486725;31;20161;-81
2022/05/22 06:30:42;;;;;;;2.78;1.40;;;;;;;23.71;30.97;98557.81;4486648;31;20093;-80
2022/05/22 06:33:13;;;;;;;4.25;1.55;;;;;;;23.44;31.17;98565.25;4485386;32;20336;-81
2022/05/22 06:35:42;;;;;;;5.00;1.50;;;;;;;23.49;30.52;98562.09;4486459;31;20100;-85
2022/05/22 06:38:08;;;;;;;4.47;1.40;;;;;;;23.30;31.09;98566.81;4493156;31;20114;-82
2022/05/22 06:40:37;;;;;;;3.40;1.40;;;;;;;23.48;31.46;98565.75;4488590;31;20080;-81
2022/05/22 06:43:02;;;;;;;5.65;1.52;;;;;;;23.61;31.46;98563.38;4476141;32;20634;-81
2022/05/22 06:45:28;;;;;;;4.30;1.30;;;;;;;23.83;30.46;98561.81;4487515;31;20106;-81
2022/05/22 06:47:54;;;;;;;3.53;1.20;;;;;;;23.81;31.21;98566.53;4497687;31;20470;-83
2022/05/22 06:50:24;;;;;;;6.47;1.30;;;;;;;23.78;29.91;98563.31;4478818;31;20107;-83
2022/05/22 06:52:50;;;;;;;7.55;1.55;;;;;;;24.00;29.10;98564.44;4493706;31;20166;-83
2022/05/22 06:55:16;;;;;;;4.25;1.40;;;;;;;24.23;29.34;98568.03;4488346;31;20089;-83
2022/05/22 06:57:41;;;;;;;10.38;2.17;;;;;;;23.94;29.68;98561.44;4474588;31;20092;-83
2022/05/22 07:00:14;;;;;;;6.15;1.60;;;;;;;24.30;29.77;98560.09;4495810;31;20088;-83
2022/05/22 07:02:40;;;;;;;7.50;1.40;;;;;;;24.43;28.32;98562.19;4467713;31;20160;-83
2022/05/22 07:05:06;;;;;;;4.00;1.45;;;;;;;24.52;28.34;98558.47;4489762;31;20092;-82
2022/05/22 07:07:32;;;;;;;4.90;1.40;;;;;;;24.51;28.56;98548.69;4480995;31;20151;-81
2022/05/22 07:09:57;;;;;;;3.12;1.35;;;;;;;24.42;28.21;98534.44;4478161;31;20415;-85
2022/05/22 07:12:23;;;;;;;5.37;1.50;;;;;;;24.08;28.98;98543.69;4478203;31;20080;-83
2022/05/22 07:14:53;;;;;;;3.80;1.30;;;;;;;23.77;28.96;98537.44;4486465;31;20157;-83
2022/05/22 07:17:21;;;;;;;6.00;1.40;;;;;;;23.67;29.51;98545.72;4476383;31;20111;-82
2022/05/22 07:19:47;;;;;;;6.35;1.77;;;;;;;23.68;29.50;98534.78;4490240;31;20107;-86
2022/05/22 07:22:12;;;;;;;8.23;1.58;;;;;;;23.89;29.49;98538.75;4491463;31;20435;-84
2022/05/22 07:24:38;;;;;;;4.97;1.27;;;;;;;23.78;29.21;98540.00;4489541;31;20128;-86
2022/05/22 07:27:04;;;;;;;5.05;1.40;;;;;;;24.15;28.15;98546.53;4481066;32;20108;-87
2022/05/22 07:29:29;;;;;;;4.03;1.60;;;;;;;23.97;27.61;98533.34;4482126;31;20421;-85
2022/05/22 07:31:56;;;;;;;5.72;1.42;;;;;;;24.03;28.56;98529.97;4495207;31;20117;-83
2022/05/22 07:34:24;;;;;;;4.85;1.50;;;;;;;23.91;28.72;98526.81;4467356;31;20415;-84
2022/05/22 07:36:53;;;;;;;;;;;;;;;24.20;28.78;98528.00;4489670;31;20463;-85
2022/05/22 07:39:18;;;;;;;4.15;1.48;;;;;;;24.05;28.30;98537.81;4484024;31;19986;-84
2022/05/22 07:41:43;;;;;;;3.00;1.02;;;;;;;23.96;28.69;98541.59;4495105;31;20127;-85
2022/05/22 07:44:09;;;;;;;3.03;1.23;;;;;;;23.73;28.85;98537.78;4486171;31;20467;-82
2022/05/22 07:46:34;;;;;;;6.45;1.25;;;;;;;23.54;29.08;98539.00;4473063;32;20145;-86
2022/05/22 07:48:59;;;;;;;4.30;1.30;;;;;;;23.46;30.08;98535.53;4494391;31;20426;-86
2022/05/22 07:51:26;;;;;;;3.22;1.40;;;;;;;23.53;29.09;98525.78;4491708;31;20089;-86
2022/05/22 07:53:51;;;;;;;2.65;1.20;;;;;;;23.51;29.30;98530.47;4480949;32;20131;-87
2022/05/22 07:56:21;;;;;;;4.47;1.40;;;;;;;23.43;29.57;98531.34;4497674;31;20099;-86
2022/05/22 07:58:47;;;;;;;5.47;1.35;;;;;;;23.34;29.74;98535.06;4490017;31;20143;-85
2022/05/22 08:01:13;;;;;;;4.97;1.37;;;;;;;23.23;30.09;98533.56;4482394;31;20075;-82
2022/05/22 08:03:38;;;;;;;5.95;1.58;;;;;;;22.87;29.62;98525.00;4497195;31;20176;-82
2022/05/22 08:06:04;;;;;;;5.72;1.40;;;;;;;23.10;29.97;98525.19;4469017;31;20100;-82
2022/05/22 08:08:29;;;;;;;6.15;1.50;;;;;;;23.13;30.31;98527.53;4491631;31;20080;-82
2022/05/22 08:10:56;;;;;;;5.03;1.50;;;;;;;22.52;31.85;98535.06;4500189;31;20108;-82
2022/05/22 08:13:22;;;;;;;4.12;1.50;;;;;;;22.87;31.40;98517.81;4477658;31;20123;-82
2022/05/22 08:15:47;;;;;;;5.68;1.60;;;;;;;22.91;31.17;98521.81;4495658;31;20085;-81
2022/05/22 08:18:13;;;;;;;6.10;1.60;;;;;;;22.92;31.43;98523.47;4497240;31;20431;-82
2022/05/22 08:20:40;;;;;;;3.97;1.30;;;;;;;22.95;32.08;98515.09;4490402;31;20092;-82
2022/05/22 08:23:09;;;;;;;3.70;1.52;;;;;;;22.84;32.10;98507.37;4485630;32;20139;-85
2022/05/22 08:25:34;;;;;;;7.07;1.70;;;;;;;22.90;31.75;98511.25;4478744;31;20383;-81
2022/05/22 08:27:59;;;;;;;4.22;1.45;;;;;;;22.92;31.57;98514.59;4494095;31;20100;-84
2022/05/22 08:30:28;;;;;;;7.32;1.45;;;;;;;22.22;32.20;98513.19;4497663;31;20084;-82
2022/05/22 08:32:54;;;;;;;5.25;1.75;;;;;;;22.25;33.29;98509.34;4489026;31;20092;-82
2022/05/22 08:35:27;;;;;;;6.25;1.70;;;;;;;22.51;33.00;98510.06;4483957;32;20152;-85
2022/05/22 08:37:53;;;;;;;6.72;1.50;;;;;;;22.35;33.12;98500.16;4489947;31;20107;-83
2022/05/22 08:40:20;;;;;;;6.12;1.50;;;;;;;22.57;33.03;98503.19;4497483;31;20088;-85
2022/05/22 08:42:50;;;;;;;;;;;;;;;22.51;33.37;98493.97;4473628;31;20123;-85
2022/05/22 08:45:52;;;;;;;4.70;1.55;;;;;;;22.64;32.78;98490.78;4496090;31;20002;-83
2022/05/22 08:48:33;;;;;;;5.12;1.50;;;;;;;22.72;32.87;98481.88;4479893;31;20496;-81
2022/05/22 08:50:59;;;;;;;4.68;1.48;;;;;;;22.93;32.47;98492.13;4472392;31;20100;-83
2022/05/22 08:53:30;;;;;;;5.68;1.50;;;;;;;22.41;32.09;98495.97;4497340;31;20115;-82
2022/05/22 08:58:57;;;;;;;4.22;1.50;;;;;;;22.63;32.84;98496.31;4490925;31;20115;-82
2022/05/22 09:01:51;;;;;;;6.28;1.70;;;;;;;22.87;32.05;98496.31;4503328;31;20475;-82
2022/05/22 09:04:33;;;;;;;3.97;1.58;;;;;;;23.05;31.62;98492.63;4503190;31;20145;-80
2022/05/22 09:07:20;;;;;;;4.47;1.30;;;;;;;23.31;31.54;98484.31;4503240;31;20083;-81
2022/05/22 09:09:57;;;;;;;5.35;1.80;;;;;;;23.38;31.91;98474.56;4488821;31;20075;-82
2022/05/22 09:12:40;;;;;;;5.60;1.70;;;;;;;23.61;31.08;98481.88;4503277;31;20080;-82
2022/05/22 09:15:15;;;;;;;4.97;1.52;;;;;;;23.42;30.60;98477.75;4503089;31;20525;-82
2022/05/22 09:17:52;;;;;;;5.18;1.25;;;;;;;23.84;29.42;98453.22;4503151;31;20107;-82
2022/05/22 09:20:20;;;;;;;5.85;1.73;;;;;;;23.88;29.87;98469.84;4488828;31;20079;-82
2022/05/22 09:22:52;;;;;;;7.07;1.55;;;;;;;23.82;29.63;98473.25;4488734;31;20076;-81
2022/05/22 09:25:27;;;;;;;5.80;1.67;;;;;;;23.90;29.93;98457.03;4503045;31;20122;-82
2022/05/22 09:28:04;;;;;;;6.55;1.58;;;;;;;24.17;28.03;98453.00;4488793;31;20505;-81
2022/05/22 09:30:42;;;;;;;5.72;1.50;;;;;;;23.92;28.20;98450.47;4503069;31;20486;-82
2022/05/22 09:33:34;;;;;;;4.75;1.37;;;;;;;24.02;28.66;98455.63;4488489;31;20102;-81
2022/05/22 09:36:24;;;;;;;3.78;1.30;;;;;;;24.07;28.83;98455.94;4488512;31;20451;-82
2022/05/22 09:39:01;;;;;;;5.10;1.30;;;;;;;24.29;28.83;98445.34;4475327;31;20618;-82
2022/05/22 09:41:36;;;;;;;6.12;1.55;;;;;;;24.09;28.15;98445.81;4503076;31;20079;-82
2022/05/22 09:44:08;;;;;;;6.62;1.58;;;;;;;24.39;27.51;98453.19;4502945;31;20080;-82
2022/05/22 09:46:39;;;;;;;5.20;1.40;;;;;;;23.94;29.08;98459.19;4502895;31;20130;-82
2022/05/22 09:49:23;;;;;;;4.00;1.20;;;;;;;23.64;28.66;98444.72;4503011;31;20107;-82
2022/05/22 09:52:06;;;;;;;3.55;1.30;;;;;;;23.69;28.41;98438.81;4503138;31;20088;-82
2022/05/22 09:54:53;;;;;;;5.37;1.58;;;;;;;23.46;28.88;98438.75;4502783;31;20068;-82
2022/05/22 09:57:37;;;;;;;5.68;1.52;;;;;;;23.70;29.27;98427.88;4488524;31;20100;-82
2022/05/22 10:00:15;;;;;;;6.12;1.50;;;;;;;23.94;29.14;98436.84;4502827;31;20481;-82
2022/05/22 10:03:19;;;;;;;4.70;1.33;;;;;;;23.94;28.47;98439.53;4502805;31;20102;-82
2022/05/22 10:05:50;;;;;;;5.10;1.35;;;;;;;23.86;29.11;98439.59;4499331;31;20076;-82
2022/05/22 10:08:34;;;;;;;5.07;1.25;;;;;;;23.75;28.48;98428.16;4502714;31;20111;-82
2022/05/22 10:11:06;;;;;;;4.47;1.40;;;;;;;23.44;29.14;98438.91;4502166;31;20107;-82
2022/05/22 10:13:46;;;;;;;4.78;1.30;;;;;;;22.98;29.11;98419.88;4502819;31;20103;-82
2022/05/22 10:16:34;;;;;;;3.53;1.33;;;;;;;23.30;29.58;98426.22;4488287;31;20096;-82
2022/05/22 10:19:15;;;;;;;5.60;1.50;;;;;;;23.59;30.00;98430.94;4488171;31;20148;-82
2022/05/22 10:21:55;;;;;;;5.78;1.20;;;;;;;23.77;29.23;98433.38;4502721;31;20114;-82
2022/05/22 10:24:35;;;;;;;2.78;1.20;;;;;;;23.69;28.91;98430.72;4502629;31;20092;-82
2022/05/22 10:27:10;;;;;;;3.67;0.98;;;;;;;23.37;29.26;98424.47;4502478;31;20112;-82
2022/05/22 10:30:06;;;;;;;5.78;1.27;;;;;;;23.45;28.92;98416.41;4488266;31;20118;-82
2022/05/22 10:32:37;;;;;;;5.05;1.42;;;;;;;23.67;29.02;98416.63;4475095;31;20455;-82
2022/05/22 10:35:06;;;;;;;3.62;1.20;;;;;;;23.24;28.58;98422.38;4488170;31;20080;-82
2022/05/22 10:37:55;;;;;;;5.87;1.40;;;;;;;23.04;28.55;98404.97;4502209;31;20188;-82
2022/05/22 10:40:23;;;;;;;5.30;1.50;;;;;;;23.26;28.43;98414.13;4487898;31;20092;-81
2022/05/22 10:42:58;;;;;;;5.95;1.25;;;;;;;23.06;28.77;98411.00;4502334;31;20084;-82
2022/05/22 10:45:33;;;;;;;4.97;1.33;;;;;;;23.01;29.33;98410.66;4502217;31;20083;-82
2022/05/22 10:48:10;;;;;;;5.22;1.37;;;;;;;23.22;29.16;98402.03;4488123;31;20072;-82
2022/05/22 10:50:36;;;;;;;4.65;1.30;;;;;;;23.09;29.30;98427.62;4487725;31;20463;-82
2022/05/22 10:53:01;;;;;;;6.75;1.50;;;;;;;23.08;29.29;98396.41;4487910;31;20118;-81
2022/05/22 10:55:32;;;;;;;7.68;1.40;;;;;;;22.94;28.72;98416.69;4501978;31;20123;-81
2022/05/22 10:58:01;;;;;;;2.47;1.10;;;;;;;22.89;28.74;98426.28;4502129;31;20096;-82
2022/05/22 11:00:27;;;;;;;4.78;1.25;;;;;;;22.77;29.22;98415.06;4487779;31;20155;-82
2022/05/22 11:02:54;;;;;;;7.43;1.60;;;;;;;22.85;29.17;98406.16;4487742;31;20095;-81
2022/05/22 11:05:27;;;;;;;3.60;1.10;;;;;;;22.83;29.17;98421.59;4502111;31;20115;-82
2022/05/22 11:07:54;;;;;;;4.93;1.30;;;;;;;23.10;28.91;98423.06;4487634;31;20103;-82
2022/05/22 11:10:33;;;;;;;;;;;;;;;23.21;29.12;98427.25;4487678;31;20104;-82
2022/05/22 11:13:09;;;;;;;5.22;1.60;;;;;;;23.27;28.94;98424.69;4482871;31;19984;-81
2022/05/22 11:15:42;;;;;;;3.72;1.30;;;;;;;23.51;28.62;98398.75;4477659;31;20076;-81
2022/05/22 11:18:26;;;;;;;4.18;1.10;;;;;;;23.44;28.76;98405.81;4476050;32;20077;-81
2022/05/22 11:21:14;;;;;;;4.40;1.35;;;;;;;23.41;29.42;98408.84;4486042;32;20436;-82
2022/05/22 11:23:45;;;;;;;7.23;1.50;;;;;;;23.17;29.20;98398.03;4474287;32;20448;-83
2022/05/22 11:26:25;;;;;;;5.85;1.40;;;;;;;23.35;29.77;98391.56;4488351;32;20193;-85
2022/05/22 11:29:24;;;;;;;5.97;1.60;;;;;;;23.33;29.94;98398.97;4489621;31;20080;-89
2022/05/22 11:32:11;;;;;;;6.62;1.48;;;;;;;23.16;28.92;98396.38;4482068;31;20120;-82
2022/05/22 11:34:55;;;;;;;4.72;1.23;;;;;;;23.29;29.02;98387.72;4487255;32;20493;-80
2022/05/22 11:37:29;;;;;;;3.37;1.23;;;;;;;22.82;30.10;98380.47;4487410;32;20111;-81
2022/05/22 11:40:22;;;;;;;7.25;2.62;;;;;;;23.09;30.13;98394.53;4486414;32;20475;-81
2022/05/22 11:42:57;;;;;;;6.93;1.37;;;;;;;23.10;29.05;98388.16;4487114;32;20596;-81
2022/05/22 11:45:26;;;;;;;5.68;1.20;;;;;;;23.17;28.54;98370.31;4486900;32;20108;-81
2022/05/22 11:48:36;;;;;;;4.68;1.20;;;;;;;23.29;28.69;98382.34;4488039;31;20131;-81
2022/05/22 11:51:27;;;;;;;5.72;1.30;;;;;;;23.17;28.65;98373.84;4423755;32;20141;-81
2022/05/22 11:54:21;;;;;;;5.75;1.30;;;;;;;22.83;29.78;98374.12;4423556;32;20106;-81
2022/05/22 11:57:05;;;;;;;4.68;1.20;;;;;;;22.83;29.09;98359.84;4423525;32;20326;-81